Skip Navigation Links
NOAA logo - Click to go to the NOAA homepage
NOAA's National Weather Service
Alaska Aviation Weather Unit
  NWS logo - Click to go to the NWS homepage
Left Navbar Graphic     18 AKDT = 02 GMT

   
NOAA is celebrating 200 years of science, service, and stewardship. Visit the NOAA 200th celebration Web site to learn more.
USA.gov is the U.S. Government's official Web portal to all Federal, state and local government Web resources and services.
Facebook
NWS on Facebook

Important Change Regarding the AAWU Web Presence

 

Over the last several months, the AAWU has been working to navigate its webpages to a nationally supported server. Security, as well as other needs, have necessitated the change.  In the process, we have made an effort to enhance the functionality of our website, as well as some of our products. As of June 20, 2017, aawu.arh.noaa.gov will be discontinued. The new AAWU web address is weather.gov/aawu. It is now live and will run in-parallel with the old site until it is discontinued. Please send any feedback or questions regarding the new webpages to nws.ar.aawu.webauthors@noaa.gov.  Thank you for your patience during this time of transition.
AAWU Home :: Display TAF Add Bookmark
SPECI PAVC 242009Z AUTO 22012G17KT 10SM BKN025 BKN031 OVC060 07/02
 A3008 RMK AO2=

SPECI PAVC 242043Z AUTO 19017G22KT 10SM SCT026 BKN050 OVC060 08/02
 A3009 RMK AO2=

METAR PAVC 242056Z AUTO 19017G21KT 10SM FEW026 SCT037 BKN050 07/02
 A3009 RMK AO2 SLP196 T00720022 53008=

METAR PAVC 242156Z AUTO 21016G23KT 10SM FEW028 BKN043 OVC070 07/01
 A3011 RMK AO2 PK WND 19026/2124 SLP201 T00720011=

SPECI PAVC 242246Z AUTO 21015G20KT 10SM -RA BKN022 BKN030 OVC040
 06/03 A3012 RMK AO2 RAB26 P0000=

METAR PAVC 242256Z AUTO 19018G25KT 10SM -RA BKN022 BKN027 OVC040
 06/03 A3012 RMK AO2 RAB26 SLP205 P0000 T00610028=

METAR PAVC 242356Z AUTO 21014G21KT 10SM BKN020 OVC026 07/03 A3012
 RMK AO2 PK WND 19026/2304 RAE41 SLP204 P0000 60000 T00720028
 10078 20061 50008=

METAR PAVC 250056Z AUTO 24010KT 10SM BKN022 OVC028 07/02 A3011 RMK
 AO2 SLP202 T00720022=

METAR PAVC 250156Z AUTO 20012G18KT 10SM BKN022 OVC028 07/03 A3012
 RMK AO2 SLP204 T00670028=

SPECI PAVC 250220Z AUTO 25012G21KT 6SM -RA BR BKN021 BKN027 OVC034
 04/02 A3012 RMK AO2 WSHFT 0200 RAB10 P0000=

SPECI PAVC 250238Z AUTO 26010KT 10SM -RA FEW018 SCT023 OVC032 04/03
 A3013 RMK AO2 WSHFT 0200 RAB10 P0002=

SPECI PAVC 250245Z AUTO 26011KT 7SM RA FEW020 BKN027 OVC032 04/02
 A3013 RMK AO2 WSHFT 0200 RAB10 P0002=


NOAA's National Weather Service
Alaska Aviation Weather Unit
6930 Sand Lake Road
Anchorage, AK 99502-1845
Disclaimer
Credits
Glossary
Privacy Policy
About Us
Career Opportunities
Contact AAWU Internet Services Site last modified: April, 17th 2012